sensor_id;sensor_type;location;lat;lon;timestamp;temperature;humidity
1680;DHT22;838;51.794;12.258;2024-02-21T00:01:47;9.90;24.60
1680;DHT22;838;51.794;12.258;2024-02-21T00:04:13;9.80;24.90
1680;DHT22;838;51.794;12.258;2024-02-21T00:06:38;9.80;24.10
1680;DHT22;838;51.794;12.258;2024-02-21T00:09:04;9.80;24.70
1680;DHT22;838;51.794;12.258;2024-02-21T00:11:30;9.80;24.20
1680;DHT22;838;51.794;12.258;2024-02-21T00:13:55;9.80;24.70
1680;DHT22;838;51.794;12.258;2024-02-21T00:16:21;9.80;25.30
1680;DHT22;838;51.794;12.258;2024-02-21T00:18:47;9.90;24.80
1680;DHT22;838;51.794;12.258;2024-02-21T00:21:13;9.80;25.00
1680;DHT22;838;51.794;12.258;2024-02-21T00:23:44;9.70;25.50
1680;DHT22;838;51.794;12.258;2024-02-21T00:26:14;9.70;25.70
1680;DHT22;838;51.794;12.258;2024-02-21T00:28:40;9.80;25.40
1680;DHT22;838;51.794;12.258;2024-02-21T00:31:06;9.70;26.10
1680;DHT22;838;51.794;12.258;2024-02-21T00:33:32;9.80;26.10
1680;DHT22;838;51.794;12.258;2024-02-21T00:35:57;9.70;26.10
1680;DHT22;838;51.794;12.258;2024-02-21T00:38:23;9.80;25.70
1680;DHT22;838;51.794;12.258;2024-02-21T00:40:49;9.80;25.90
1680;DHT22;838;51.794;12.258;2024-02-21T00:43:14;9.70;26.10
1680;DHT22;838;51.794;12.258;2024-02-21T00:45:40;9.80;26.30
1680;DHT22;838;51.794;12.258;2024-02-21T00:48:06;9.70;26.50
1680;DHT22;838;51.794;12.258;2024-02-21T00:50:32;9.80;25.60
1680;DHT22;838;51.794;12.258;2024-02-21T00:52:58;9.90;25.00
1680;DHT22;838;51.794;12.258;2024-02-21T00:55:24;9.80;25.40
1680;DHT22;838;51.794;12.258;2024-02-21T00:57:52;9.80;25.00
1680;DHT22;838;51.794;12.258;2024-02-21T01:00:18;9.80;25.00
1680;DHT22;838;51.794;12.258;2024-02-21T01:02:44;9.80;25.70
1680;DHT22;838;51.794;12.258;2024-02-21T01:05:10;9.80;24.70
1680;DHT22;838;51.794;12.258;2024-02-21T01:07:36;9.80;25.00
1680;DHT22;838;51.794;12.258;2024-02-21T01:10:03;9.80;25.00
1680;DHT22;838;51.794;12.258;2024-02-21T01:12:29;9.70;25.90
1680;DHT22;838;51.794;12.258;2024-02-21T01:14:55;9.70;24.90
1680;DHT22;838;51.794;12.258;2024-02-21T01:17:21;9.80;24.70
1680;DHT22;838;51.794;12.258;2024-02-21T01:19:46;9.80;23.90
1680;DHT22;838;51.794;12.258;2024-02-21T01:22:12;9.80;25.20
1680;DHT22;838;51.794;12.258;2024-02-21T01:24:38;9.70;25.30
1680;DHT22;838;51.794;12.258;2024-02-21T01:27:04;9.70;25.90
1680;DHT22;838;51.794;12.258;2024-02-21T01:29:29;9.70;26.30
1680;DHT22;838;51.794;12.258;2024-02-21T01:31:55;9.80;27.00
1680;DHT22;838;51.794;12.258;2024-02-21T01:34:21;9.80;26.40
1680;DHT22;838;51.794;12.258;2024-02-21T01:36:48;9.80;26.60
1680;DHT22;838;51.794;12.258;2024-02-21T01:39:13;9.80;26.50
1680;DHT22;838;51.794;12.258;2024-02-21T01:41:39;9.80;27.20
1680;DHT22;838;51.794;12.258;2024-02-21T01:44:05;9.90;26.80
1680;DHT22;838;51.794;12.258;2024-02-21T01:46:31;9.90;27.10
1680;DHT22;838;51.794;12.258;2024-02-21T01:48:57;10.00;25.50
1680;DHT22;838;51.794;12.258;2024-02-21T01:51:24;10.00;26.20
1680;DHT22;838;51.794;12.258;2024-02-21T01:53:51;9.90;27.60
1680;DHT22;838;51.794;12.258;2024-02-21T01:56:18;9.90;29.60
1680;DHT22;838;51.794;12.258;2024-02-21T01:58:44;9.90;30.30
1680;DHT22;838;51.794;12.258;2024-02-21T02:01:10;9.80;34.00
1680;DHT22;838;51.794;12.258;2024-02-21T02:03:36;9.60;36.40
1680;DHT22;838;51.794;12.258;2024-02-21T02:06:04;9.60;38.00
1680;DHT22;838;51.794;12.258;2024-02-21T02:08:30;9.60;39.30
1680;DHT22;838;51.794;12.258;2024-02-21T02:10:57;9.70;38.90
1680;DHT22;838;51.794;12.258;2024-02-21T02:13:22;9.70;38.80
1680;DHT22;838;51.794;12.258;2024-02-21T02:15:49;9.80;38.40
1680;DHT22;838;51.794;12.258;2024-02-21T02:18:16;9.80;40.10
1680;DHT22;838;51.794;12.258;2024-02-21T02:20:43;9.80;42.90
1680;DHT22;838;51.794;12.258;2024-02-21T02:23:29;9.70;42.50
1680;DHT22;838;51.794;12.258;2024-02-21T02:25:55;9.80;42.80
1680;DHT22;838;51.794;12.258;2024-02-21T02:28:21;9.90;42.90
1680;DHT22;838;51.794;12.258;2024-02-21T02:30:47;10.00;39.20
1680;DHT22;838;51.794;12.258;2024-02-21T02:33:13;10.10;39.10
1680;DHT22;838;51.794;12.258;2024-02-21T02:35:40;10.10;39.40
1680;DHT22;838;51.794;12.258;2024-02-21T02:38:05;10.00;39.60
1680;DHT22;838;51.794;12.258;2024-02-21T02:40:35;10.00;40.90
1680;DHT22;838;51.794;12.258;2024-02-21T02:43:02;9.90;43.60
1680;DHT22;838;51.794;12.258;2024-02-21T02:45:28;9.80;43.90
1680;DHT22;838;51.794;12.258;2024-02-21T02:47:54;9.70;47.80
1680;DHT22;838;51.794;12.258;2024-02-21T02:50:20;9.60;47.10
1680;DHT22;838;51.794;12.258;2024-02-21T02:52:46;9.50;49.10
1680;DHT22;838;51.794;12.258;2024-02-21T02:55:12;9.50;48.60
1680;DHT22;838;51.794;12.258;2024-02-21T02:57:38;9.40;49.50
1680;DHT22;838;51.794;12.258;2024-02-21T03:00:04;9.30;49.40
1680;DHT22;838;51.794;12.258;2024-02-21T03:02:32;9.30;51.60
1680;DHT22;838;51.794;12.258;2024-02-21T03:04:57;9.30;51.90
1680;DHT22;838;51.794;12.258;2024-02-21T03:07:25;9.20;52.80
1680;DHT22;838;51.794;12.258;2024-02-21T03:09:50;9.20;53.40
1680;DHT22;838;51.794;12.258;2024-02-21T03:12:16;9.30;54.50
1680;DHT22;838;51.794;12.258;2024-02-21T03:14:53;9.30;53.40
1680;DHT22;838;51.794;12.258;2024-02-21T03:17:18;9.40;52.70
1680;DHT22;838;51.794;12.258;2024-02-21T03:19:44;9.30;53.90
1680;DHT22;838;51.794;12.258;2024-02-21T03:22:10;9.30;52.30
1680;DHT22;838;51.794;12.258;2024-02-21T03:24:38;9.30;53.40
1680;DHT22;838;51.794;12.258;2024-02-21T03:27:04;9.30;53.50
1680;DHT22;838;51.794;12.258;2024-02-21T03:29:30;9.20;55.60
1680;DHT22;838;51.794;12.258;2024-02-21T03:31:56;9.20;55.50
1680;DHT22;838;51.794;12.258;2024-02-21T03:34:22;9.20;55.40
1680;DHT22;838;51.794;12.258;2024-02-21T03:36:47;9.20;56.90
1680;DHT22;838;51.794;12.258;2024-02-21T03:39:13;9.10;56.80
1680;DHT22;838;51.794;12.258;2024-02-21T03:41:39;9.10;56.40
1680;DHT22;838;51.794;12.258;2024-02-21T03:44:04;9.10;58.10
1680;DHT22;838;51.794;12.258;2024-02-21T03:46:30;9.00;57.60
1680;DHT22;838;51.794;12.258;2024-02-21T03:48:57;9.00;59.30
1680;DHT22;838;51.794;12.258;2024-02-21T03:51:23;9.00;59.20
1680;DHT22;838;51.794;12.258;2024-02-21T03:53:49;8.90;59.70
1680;DHT22;838;51.794;12.258;2024-02-21T03:56:14;9.00;60.50
1680;DHT22;838;51.794;12.258;2024-02-21T03:58:40;9.00;60.50
1680;DHT22;838;51.794;12.258;2024-02-21T04:01:06;8.90;61.50
1680;DHT22;838;51.794;12.258;2024-02-21T04:03:31;8.90;61.90
1680;DHT22;838;51.794;12.258;2024-02-21T04:05:57;8.80;60.80
1680;DHT22;838;51.794;12.258;2024-02-21T04:08:23;8.90;62.30
1680;DHT22;838;51.794;12.258;2024-02-21T04:10:49;8.90;62.50
1680;DHT22;838;51.794;12.258;2024-02-21T04:13:14;8.80;61.40
1680;DHT22;838;51.794;12.258;2024-02-21T04:15:40;8.90;62.50
1680;DHT22;838;51.794;12.258;2024-02-21T04:18:06;8.90;61.10
1680;DHT22;838;51.794;12.258;2024-02-21T04:20:32;8.80;63.10
1680;DHT22;838;51.794;12.258;2024-02-21T04:22:58;8.90;63.80
1680;DHT22;838;51.794;12.258;2024-02-21T04:25:24;8.80;63.10
1680;DHT22;838;51.794;12.258;2024-02-21T04:27:49;8.80;64.00
1680;DHT22;838;51.794;12.258;2024-02-21T04:30:15;8.90;63.40
1680;DHT22;838;51.794;12.258;2024-02-21T04:32:41;8.70;63.30
1680;DHT22;838;51.794;12.258;2024-02-21T04:35:07;8.80;64.10
1680;DHT22;838;51.794;12.258;2024-02-21T04:37:33;8.50;63.90
1680;DHT22;838;51.794;12.258;2024-02-21T04:39:59;8.80;63.50
1680;DHT22;838;51.794;12.258;2024-02-21T04:42:25;8.70;62.80
1680;DHT22;838;51.794;12.258;2024-02-21T04:44:51;8.70;65.10
1680;DHT22;838;51.794;12.258;2024-02-21T04:47:16;8.60;64.80
1680;DHT22;838;51.794;12.258;2024-02-21T04:49:42;8.60;65.00
1680;DHT22;838;51.794;12.258;2024-02-21T04:52:08;8.70;64.80
1680;DHT22;838;51.794;12.258;2024-02-21T04:54:34;8.60;63.70
1680;DHT22;838;51.794;12.258;2024-02-21T04:57:02;8.70;63.60
1680;DHT22;838;51.794;12.258;2024-02-21T04:59:28;8.70;63.80
1680;DHT22;838;51.794;12.258;2024-02-21T05:01:55;8.60;64.60
1680;DHT22;838;51.794;12.258;2024-02-21T05:04:21;8.50;65.00
1680;DHT22;838;51.794;12.258;2024-02-21T05:06:46;8.40;66.10
1680;DHT22;838;51.794;12.258;2024-02-21T05:09:12;8.30;67.10
1680;DHT22;838;51.794;12.258;2024-02-21T05:11:38;8.30;67.10
1680;DHT22;838;51.794;12.258;2024-02-21T05:14:04;8.20;68.20
1680;DHT22;838;51.794;12.258;2024-02-21T05:16:30;8.20;68.10
1680;DHT22;838;51.794;12.258;2024-02-21T05:18:56;8.20;68.20
1680;DHT22;838;51.794;12.258;2024-02-21T05:21:26;8.10;69.40
1680;DHT22;838;51.794;12.258;2024-02-21T05:23:53;8.20;69.90
1680;DHT22;838;51.794;12.258;2024-02-21T05:26:26;8.20;70.20
1680;DHT22;838;51.794;12.258;2024-02-21T05:28:52;8.30;69.70
1680;DHT22;838;51.794;12.258;2024-02-21T05:31:19;8.40;69.60
1680;DHT22;838;51.794;12.258;2024-02-21T05:33:45;8.40;67.40
1680;DHT22;838;51.794;12.258;2024-02-21T05:36:11;8.40;68.40
1680;DHT22;838;51.794;12.258;2024-02-21T05:38:37;8.40;67.70
1680;DHT22;838;51.794;12.258;2024-02-21T05:41:03;8.40;67.40
1680;DHT22;838;51.794;12.258;2024-02-21T05:43:29;8.40;67.70
1680;DHT22;838;51.794;12.258;2024-02-21T05:45:55;8.40;67.40
1680;DHT22;838;51.794;12.258;2024-02-21T05:48:22;8.50;67.10
1680;DHT22;838;51.794;12.258;2024-02-21T05:50:48;8.60;66.10
1680;DHT22;838;51.794;12.258;2024-02-21T05:53:13;8.60;63.60
1680;DHT22;838;51.794;12.258;2024-02-21T05:55:40;8.60;63.80
1680;DHT22;838;51.794;12.258;2024-02-21T05:58:05;8.60;62.40
1680;DHT22;838;51.794;12.258;2024-02-21T06:00:32;8.60;62.00
1680;DHT22;838;51.794;12.258;2024-02-21T06:02:58;8.60;63.70
1680;DHT22;838;51.794;12.258;2024-02-21T06:05:23;8.60;63.20
1680;DHT22;838;51.794;12.258;2024-02-21T06:07:49;8.70;62.60
1680;DHT22;838;51.794;12.258;2024-02-21T06:10:15;8.70;61.70
1680;DHT22;838;51.794;12.258;2024-02-21T06:12:41;8.80;61.60
1680;DHT22;838;51.794;12.258;2024-02-21T06:15:07;8.90;59.00
1680;DHT22;838;51.794;12.258;2024-02-21T06:17:33;9.00;59.10
1680;DHT22;838;51.794;12.258;2024-02-21T06:19:58;9.00;58.80
1680;DHT22;838;51.794;12.258;2024-02-21T06:22:24;9.00;58.70
1680;DHT22;838;51.794;12.258;2024-02-21T06:24:50;8.90;58.00
1680;DHT22;838;51.794;12.258;2024-02-21T06:27:15;8.90;58.30
1680;DHT22;838;51.794;12.258;2024-02-21T06:29:42;8.90;58.00
1680;DHT22;838;51.794;12.258;2024-02-21T06:32:07;8.90;57.40
1680;DHT22;838;51.794;12.258;2024-02-21T06:34:33;8.90;58.40
1680;DHT22;838;51.794;12.258;2024-02-21T06:36:59;8.90;57.10
1680;DHT22;838;51.794;12.258;2024-02-21T06:39:24;8.90;57.30
1680;DHT22;838;51.794;12.258;2024-02-21T06:41:50;8.80;56.30
1680;DHT22;838;51.794;12.258;2024-02-21T06:44:17;8.90;57.30
1680;DHT22;838;51.794;12.258;2024-02-21T06:46:43;8.90;56.60
1680;DHT22;838;51.794;12.258;2024-02-21T06:49:09;8.90;56.50
1680;DHT22;838;51.794;12.258;2024-02-21T06:51:34;8.90;55.90
1680;DHT22;838;51.794;12.258;2024-02-21T06:54:05;8.90;56.20
1680;DHT22;838;51.794;12.258;2024-02-21T06:56:31;8.90;55.40
1680;DHT22;838;51.794;12.258;2024-02-21T06:58:56;9.00;55.00
1680;DHT22;838;51.794;12.258;2024-02-21T07:01:22;9.00;54.40
1680;DHT22;838;51.794;12.258;2024-02-21T07:03:48;9.10;53.60
1680;DHT22;838;51.794;12.258;2024-02-21T07:06:13;9.10;51.60
1680;DHT22;838;51.794;12.258;2024-02-21T07:08:39;9.10;52.70
1680;DHT22;838;51.794;12.258;2024-02-21T07:11:05;9.00;52.80
1680;DHT22;838;51.794;12.258;2024-02-21T07:13:32;9.10;52.60
1680;DHT22;838;51.794;12.258;2024-02-21T07:15:58;9.20;51.90
1680;DHT22;838;51.794;12.258;2024-02-21T07:18:24;9.30;50.30
1680;DHT22;838;51.794;12.258;2024-02-21T07:20:51;9.50;50.10
1680;DHT22;838;51.794;12.258;2024-02-21T07:23:18;9.70;47.20
1680;DHT22;838;51.794;12.258;2024-02-21T07:25:44;9.80;45.30
1680;DHT22;838;51.794;12.258;2024-02-21T07:28:09;9.80;43.20
1680;DHT22;838;51.794;12.258;2024-02-21T07:30:35;9.70;43.90
1680;DHT22;838;51.794;12.258;2024-02-21T07:33:01;9.60;45.90
1680;DHT22;838;51.794;12.258;2024-02-21T07:35:27;9.50;46.80
1680;DHT22;838;51.794;12.258;2024-02-21T07:37:53;9.60;46.80
1680;DHT22;838;51.794;12.258;2024-02-21T07:40:18;9.70;45.50
1680;DHT22;838;51.794;12.258;2024-02-21T07:42:44;9.70;45.00
1680;DHT22;838;51.794;12.258;2024-02-21T07:45:10;9.60;43.40
1680;DHT22;838;51.794;12.258;2024-02-21T07:47:38;9.60;43.70
1680;DHT22;838;51.794;12.258;2024-02-21T07:50:04;9.60;44.80
1680;DHT22;838;51.794;12.258;2024-02-21T07:52:30;9.70;44.20
1680;DHT22;838;51.794;12.258;2024-02-21T07:54:55;9.80;42.10
1680;DHT22;838;51.794;12.258;2024-02-21T07:57:22;9.80;41.20
1680;DHT22;838;51.794;12.258;2024-02-21T07:59:48;9.80;40.20
1680;DHT22;838;51.794;12.258;2024-02-21T08:02:14;9.80;40.70
1680;DHT22;838;51.794;12.258;2024-02-21T08:04:40;9.90;40.20
1680;DHT22;838;51.794;12.258;2024-02-21T08:07:06;10.00;39.60
1680;DHT22;838;51.794;12.258;2024-02-21T08:09:31;10.20;37.70
1680;DHT22;838;51.794;12.258;2024-02-21T08:11:57;10.20;35.60
1680;DHT22;838;51.794;12.258;2024-02-21T08:14:23;10.40;35.80
1680;DHT22;838;51.794;12.258;2024-02-21T08:16:50;10.60;33.00
1680;DHT22;838;51.794;12.258;2024-02-21T08:19:16;10.70;30.90
1680;DHT22;838;51.794;12.258;2024-02-21T08:21:43;10.70;30.00
1680;DHT22;838;51.794;12.258;2024-02-21T08:24:09;10.80;31.00
1680;DHT22;838;51.794;12.258;2024-02-21T08:26:43;10.90;29.90
1680;DHT22;838;51.794;12.258;2024-02-21T08:29:11;10.90;27.60
1680;DHT22;838;51.794;12.258;2024-02-21T08:31:37;10.90;28.70
1680;DHT22;838;51.794;12.258;2024-02-21T08:34:03;10.80;29.40
1680;DHT22;838;51.794;12.258;2024-02-21T08:36:36;10.80;29.00
1680;DHT22;838;51.794;12.258;2024-02-21T08:39:03;10.70;28.90
1680;DHT22;838;51.794;12.258;2024-02-21T08:41:31;10.70;27.70
1680;DHT22;838;51.794;12.258;2024-02-21T08:43:57;10.70;28.40
1680;DHT22;838;51.794;12.258;2024-02-21T08:46:26;10.90;29.00
1680;DHT22;838;51.794;12.258;2024-02-21T08:48:52;11.50;26.10
1680;DHT22;838;51.794;12.258;2024-02-21T08:51:18;12.10;21.90
1680;DHT22;838;51.794;12.258;2024-02-21T08:53:45;12.30;16.30
1680;DHT22;838;51.794;12.258;2024-02-21T08:56:11;12.40;15.80
1680;DHT22;838;51.794;12.258;2024-02-21T08:58:37;12.40;14.80
1680;DHT22;838;51.794;12.258;2024-02-21T09:01:03;12.50;14.20
1680;DHT22;838;51.794;12.258;2024-02-21T09:03:31;12.60;14.90
1680;DHT22;838;51.794;12.258;2024-02-21T09:05:58;12.60;11.70
1680;DHT22;838;51.794;12.258;2024-02-21T09:08:24;12.80;11.50
1680;DHT22;838;51.794;12.258;2024-02-21T09:10:50;12.80;10.40
1680;DHT22;838;51.794;12.258;2024-02-21T09:13:16;12.50;10.40
1680;DHT22;838;51.794;12.258;2024-02-21T09:15:42;12.60;11.90
1680;DHT22;838;51.794;12.258;2024-02-21T09:18:08;12.30;11.30
1680;DHT22;838;51.794;12.258;2024-02-21T09:20:34;12.40;11.40
1680;DHT22;838;51.794;12.258;2024-02-21T09:23:00;12.70;10.70
1680;DHT22;838;51.794;12.258;2024-02-21T09:25:25;12.80;7.90
1680;DHT22;838;51.794;12.258;2024-02-21T09:27:53;12.80;7.50
1680;DHT22;838;51.794;12.258;2024-02-21T09:30:19;12.70;5.70
1680;DHT22;838;51.794;12.258;2024-02-21T09:32:45;12.70;6.70
1680;DHT22;838;51.794;12.258;2024-02-21T09:35:11;12.60;6.80
1680;DHT22;838;51.794;12.258;2024-02-21T09:37:38;12.50;7.50
1680;DHT22;838;51.794;12.258;2024-02-21T09:40:05;12.50;9.80
1680;DHT22;838;51.794;12.258;2024-02-21T09:42:37;12.80;7.30
1680;DHT22;838;51.794;12.258;2024-02-21T09:45:15;13.00;7.90
1680;DHT22;838;51.794;12.258;2024-02-21T09:50:47;12.90;4.80
1680;DHT22;838;51.794;12.258;2024-02-21T09:53:14;13.10;4.80
1680;DHT22;838;51.794;12.258;2024-02-21T09:55:40;13.20;4.40
1680;DHT22;838;51.794;12.258;2024-02-21T09:58:08;13.20;2.50
1680;DHT22;838;51.794;12.258;2024-02-21T10:00:35;13.10;1.90
1680;DHT22;838;51.794;12.258;2024-02-21T10:03:04;13.20;2.00
1680;DHT22;838;51.794;12.258;2024-02-21T10:05:36;13.20;1.00
1680;DHT22;838;51.794;12.258;2024-02-21T10:08:05;13.20;1.00
1680;DHT22;838;51.794;12.258;2024-02-21T10:10:42;13.20;1.00
1680;DHT22;838;51.794;12.258;2024-02-21T10:13:10;13.30;1.00
1680;DHT22;838;51.794;12.258;2024-02-21T10:15:36;13.30;1.00
1680;DHT22;838;51.794;12.258;2024-02-21T10:18:02;13.60;1.00
1680;DHT22;838;51.794;12.258;2024-02-21T10:20:29;13.80;1.00
1680;DHT22;838;51.794;12.258;2024-02-21T10:23:04;14.00;1.00
1680;DHT22;838;51.794;12.258;2024-02-21T10:25:37;14.10;1.00
1680;DHT22;838;51.794;12.258;2024-02-21T10:28:14;14.00;1.00
1680;DHT22;838;51.794;12.258;2024-02-21T10:30:50;14.00;1.00
1680;DHT22;838;51.794;12.258;2024-02-21T10:33:17;13.90;1.00
1680;DHT22;838;51.794;12.258;2024-02-21T10:35:46;14.00;1.00
1680;DHT22;838;51.794;12.258;2024-02-21T10:38:12;14.00;1.00
1680;DHT22;838;51.794;12.258;2024-02-21T10:40:38;14.10;1.00
1680;DHT22;838;51.794;12.258;2024-02-21T10:43:05;13.90;1.00
1680;DHT22;838;51.794;12.258;2024-02-21T10:45:35;13.70;1.00
1680;DHT22;838;51.794;12.258;2024-02-21T10:48:27;13.60;1.00
1680;DHT22;838;51.794;12.258;2024-02-21T10:51:03;13.60;1.00
1680;DHT22;838;51.794;12.258;2024-02-21T10:56:33;13.80;1.00
1680;DHT22;838;51.794;12.258;2024-02-21T10:59:04;13.90;1.00
1680;DHT22;838;51.794;12.258;2024-02-21T11:01:31;14.00;1.00
1680;DHT22;838;51.794;12.258;2024-02-21T11:04:02;14.10;1.00
1680;DHT22;838;51.794;12.258;2024-02-21T11:06:29;14.20;1.00
1680;DHT22;838;51.794;12.258;2024-02-21T11:09:07;14.10;1.00
1680;DHT22;838;51.794;12.258;2024-02-21T11:11:38;13.90;1.00
1680;DHT22;838;51.794;12.258;2024-02-21T11:14:11;13.90;1.00
1680;DHT22;838;51.794;12.258;2024-02-21T11:16:39;14.00;1.00
1680;DHT22;838;51.794;12.258;2024-02-21T11:19:09;14.00;1.00
1680;DHT22;838;51.794;12.258;2024-02-21T11:21:37;14.10;1.00
1680;DHT22;838;51.794;12.258;2024-02-21T11:24:04;14.00;1.00
1680;DHT22;838;51.794;12.258;2024-02-21T11:26:30;14.00;1.00
1680;DHT22;838;51.794;12.258;2024-02-21T11:28:58;14.00;1.00
1680;DHT22;838;51.794;12.258;2024-02-21T11:31:25;14.10;1.00
1680;DHT22;838;51.794;12.258;2024-02-21T11:33:53;14.20;1.00
1680;DHT22;838;51.794;12.258;2024-02-21T11:36:28;14.20;1.00
1680;DHT22;838;51.794;12.258;2024-02-21T11:38:54;14.20;1.00
1680;DHT22;838;51.794;12.258;2024-02-21T11:41:20;14.20;1.00
1680;DHT22;838;51.794;12.258;2024-02-21T11:43:49;14.20;1.00
1680;DHT22;838;51.794;12.258;2024-02-21T11:46:16;14.20;1.00
1680;DHT22;838;51.794;12.258;2024-02-21T11:48:42;14.30;1.00
1680;DHT22;838;51.794;12.258;2024-02-21T11:51:24;14.00;1.00
1680;DHT22;838;51.794;12.258;2024-02-21T11:53:54;14.10;1.00
1680;DHT22;838;51.794;12.258;2024-02-21T11:56:20;14.50;1.00
1680;DHT22;838;51.794;12.258;2024-02-21T11:58:49;14.60;1.00
1680;DHT22;838;51.794;12.258;2024-02-21T12:01:15;14.70;1.00
1680;DHT22;838;51.794;12.258;2024-02-21T12:03:42;14.50;1.00
1680;DHT22;838;51.794;12.258;2024-02-21T12:06:11;14.30;1.00
1680;DHT22;838;51.794;12.258;2024-02-21T12:08:43;14.20;1.00
1680;DHT22;838;51.794;12.258;2024-02-21T12:11:35;14.10;1.00
1680;DHT22;838;51.794;12.258;2024-02-21T12:14:02;14.30;1.00
1680;DHT22;838;51.794;12.258;2024-02-21T12:16:32;14.40;1.00
1680;DHT22;838;51.794;12.258;2024-02-21T12:19:01;14.50;1.00
1680;DHT22;838;51.794;12.258;2024-02-21T12:21:33;14.50;1.00
1680;DHT22;838;51.794;12.258;2024-02-21T12:24:21;14.70;1.00
1680;DHT22;838;51.794;12.258;2024-02-21T12:26:47;14.90;1.00
1680;DHT22;838;51.794;12.258;2024-02-21T12:29:13;14.80;1.00
1680;DHT22;838;51.794;12.258;2024-02-21T12:31:39;14.90;1.00
1680;DHT22;838;51.794;12.258;2024-02-21T12:34:05;14.60;1.00
1680;DHT22;838;51.794;12.258;2024-02-21T12:36:40;14.30;1.00
1680;DHT22;838;51.794;12.258;2024-02-21T12:39:08;14.30;1.00
1680;DHT22;838;51.794;12.258;2024-02-21T12:41:35;14.00;1.00
1680;DHT22;838;51.794;12.258;2024-02-21T12:44:06;14.00;1.00
1680;DHT22;838;51.794;12.258;2024-02-21T12:46:35;14.10;1.00
1680;DHT22;838;51.794;12.258;2024-02-21T12:49:01;14.20;1.00
1680;DHT22;838;51.794;12.258;2024-02-21T12:51:28;14.20;1.00
1680;DHT22;838;51.794;12.258;2024-02-21T12:53:55;14.10;1.00
1680;DHT22;838;51.794;12.258;2024-02-21T12:56:21;13.90;1.00
1680;DHT22;838;51.794;12.258;2024-02-21T12:58:47;13.60;1.00
1680;DHT22;838;51.794;12.258;2024-02-21T13:01:12;13.70;1.00
1680;DHT22;838;51.794;12.258;2024-02-21T13:03:38;13.90;1.00
1680;DHT22;838;51.794;12.258;2024-02-21T13:06:05;13.80;1.00
1680;DHT22;838;51.794;12.258;2024-02-21T13:08:32;13.70;1.00
1680;DHT22;838;51.794;12.258;2024-02-21T13:11:00;13.40;1.00
1680;DHT22;838;51.794;12.258;2024-02-21T13:13:27;13.40;1.00
1680;DHT22;838;51.794;12.258;2024-02-21T13:15:52;13.40;1.00
1680;DHT22;838;51.794;12.258;2024-02-21T13:18:18;13.40;1.00
1680;DHT22;838;51.794;12.258;2024-02-21T13:20:44;13.40;1.00
1680;DHT22;838;51.794;12.258;2024-02-21T13:23:09;13.30;1.00
1680;DHT22;838;51.794;12.258;2024-02-21T13:25:35;13.20;1.00
1680;DHT22;838;51.794;12.258;2024-02-21T13:28:01;13.20;1.00
1680;DHT22;838;51.794;12.258;2024-02-21T13:30:28;13.20;1.00
1680;DHT22;838;51.794;12.258;2024-02-21T13:32:54;13.30;1.00
1680;DHT22;838;51.794;12.258;2024-02-21T13:35:20;13.40;1.00
1680;DHT22;838;51.794;12.258;2024-02-21T13:37:46;13.30;1.00
1680;DHT22;838;51.794;12.258;2024-02-21T13:40:12;13.10;1.00
1680;DHT22;838;51.794;12.258;2024-02-21T13:42:40;12.90;1.00
1680;DHT22;838;51.794;12.258;2024-02-21T13:45:07;12.80;1.00
1680;DHT22;838;51.794;12.258;2024-02-21T13:47:36;12.80;1.00
1680;DHT22;838;51.794;12.258;2024-02-21T13:50:02;12.90;1.00
1680;DHT22;838;51.794;12.258;2024-02-21T13:52:34;12.90;1.00
1680;DHT22;838;51.794;12.258;2024-02-21T13:55:00;12.60;1.00
1680;DHT22;838;51.794;12.258;2024-02-21T13:57:26;12.40;1.60
1680;DHT22;838;51.794;12.258;2024-02-21T13:59:51;12.20;2.30
1680;DHT22;838;51.794;12.258;2024-02-21T14:02:18;12.10;5.40
1680;DHT22;838;51.794;12.258;2024-02-21T14:04:43;12.00;4.50
1680;DHT22;838;51.794;12.258;2024-02-21T14:07:09;12.00;4.10
1680;DHT22;838;51.794;12.258;2024-02-21T14:09:35;12.10;3.70
1680;DHT22;838;51.794;12.258;2024-02-21T14:12:01;12.20;2.80
1680;DHT22;838;51.794;12.258;2024-02-21T14:14:27;12.20;2.40
1680;DHT22;838;51.794;12.258;2024-02-21T14:16:53;12.30;2.20
1680;DHT22;838;51.794;12.258;2024-02-21T14:19:19;12.60;1.00
1680;DHT22;838;51.794;12.258;2024-02-21T14:21:44;12.60;1.00
1680;DHT22;838;51.794;12.258;2024-02-21T14:24:11;12.40;1.00
1680;DHT22;838;51.794;12.258;2024-02-21T14:26:37;12.50;1.00
1680;DHT22;838;51.794;12.258;2024-02-21T14:29:04;12.40;1.00
1680;DHT22;838;51.794;12.258;2024-02-21T14:31:33;12.60;1.00
1680;DHT22;838;51.794;12.258;2024-02-21T14:33:59;12.60;1.00
1680;DHT22;838;51.794;12.258;2024-02-21T14:36:26;12.60;1.00
1680;DHT22;838;51.794;12.258;2024-02-21T14:38:52;12.40;1.00
1680;DHT22;838;51.794;12.258;2024-02-21T14:41:18;12.30;1.00
1680;DHT22;838;51.794;12.258;2024-02-21T14:43:44;12.20;1.70
1680;DHT22;838;51.794;12.258;2024-02-21T14:46:11;12.10;3.20
1680;DHT22;838;51.794;12.258;2024-02-21T14:48:38;12.10;4.40
1680;DHT22;838;51.794;12.258;2024-02-21T14:51:04;12.10;4.70
1680;DHT22;838;51.794;12.258;2024-02-21T14:53:30;12.10;4.50
1680;DHT22;838;51.794;12.258;2024-02-21T14:55:56;12.00;5.90
1680;DHT22;838;51.794;12.258;2024-02-21T14:58:23;11.90;6.80
1680;DHT22;838;51.794;12.258;2024-02-21T15:00:49;11.80;7.40
1680;DHT22;838;51.794;12.258;2024-02-21T15:03:18;11.80;8.70
1680;DHT22;838;51.794;12.258;2024-02-21T15:05:47;11.80;9.00
1680;DHT22;838;51.794;12.258;2024-02-21T15:08:13;11.80;9.30
1680;DHT22;838;51.794;12.258;2024-02-21T15:10:42;11.80;8.70
1680;DHT22;838;51.794;12.258;2024-02-21T15:13:08;11.90;8.90
1680;DHT22;838;51.794;12.258;2024-02-21T15:15:34;12.00;8.70
1680;DHT22;838;51.794;12.258;2024-02-21T15:18:00;12.00;8.60
1680;DHT22;838;51.794;12.258;2024-02-21T15:20:26;12.00;8.10
1680;DHT22;838;51.794;12.258;2024-02-21T15:22:53;11.90;8.60
1680;DHT22;838;51.794;12.258;2024-02-21T15:25:19;11.90;8.40
1680;DHT22;838;51.794;12.258;2024-02-21T15:27:45;12.00;8.40
1680;DHT22;838;51.794;12.258;2024-02-21T15:30:12;12.00;8.00
1680;DHT22;838;51.794;12.258;2024-02-21T15:32:40;12.10;7.50
1680;DHT22;838;51.794;12.258;2024-02-21T15:35:09;12.00;7.30
1680;DHT22;838;51.794;12.258;2024-02-21T15:37:36;12.00;8.20
1680;DHT22;838;51.794;12.258;2024-02-21T15:40:01;12.10;7.60
1680;DHT22;838;51.794;12.258;2024-02-21T15:42:31;12.10;6.70
1680;DHT22;838;51.794;12.258;2024-02-21T15:44:58;12.00;7.40
1680;DHT22;838;51.794;12.258;2024-02-21T15:47:27;12.00;8.00
1680;DHT22;838;51.794;12.258;2024-02-21T15:49:53;11.90;8.30
1680;DHT22;838;51.794;12.258;2024-02-21T15:52:19;11.80;9.60
1680;DHT22;838;51.794;12.258;2024-02-21T15:54:44;11.50;10.90
1680;DHT22;838;51.794;12.258;2024-02-21T15:57:10;11.50;12.10
1680;DHT22;838;51.794;12.258;2024-02-21T15:59:36;11.40;12.80
1680;DHT22;838;51.794;12.258;2024-02-21T16:02:02;11.50;12.00
1680;DHT22;838;51.794;12.258;2024-02-21T16:04:29;11.50;11.60
1680;DHT22;838;51.794;12.258;2024-02-21T16:06:55;11.40;12.50
1680;DHT22;838;51.794;12.258;2024-02-21T16:09:21;11.30;13.20
1680;DHT22;838;51.794;12.258;2024-02-21T16:11:47;11.20;13.70
1680;DHT22;838;51.794;12.258;2024-02-21T16:14:13;11.10;14.70
1680;DHT22;838;51.794;12.258;2024-02-21T16:16:39;11.10;14.30
1680;DHT22;838;51.794;12.258;2024-02-21T16:19:08;11.20;13.40